createdAt,value
2022-12-08T00:01:34.815Z,8.85
2022-12-08T00:04:02.130Z,9.85
2022-12-08T00:06:49.762Z,8.85
2022-12-08T00:09:26.765Z,8.82
2022-12-08T00:12:00.252Z,8.55
2022-12-08T00:14:31.860Z,9.20
2022-12-08T00:16:58.882Z,8.95
2022-12-08T00:19:26.083Z,9.27
2022-12-08T00:21:53.027Z,9.35
2022-12-08T00:24:20.158Z,8.70
2022-12-08T00:26:47.059Z,9.57
2022-12-08T00:29:17.309Z,9.45
2022-12-08T00:31:44.753Z,9.20
2022-12-08T00:34:12.921Z,8.57
2022-12-08T00:36:39.801Z,8.85
2022-12-08T00:39:06.732Z,8.25
2022-12-08T00:41:51.907Z,8.85
2022-12-08T00:44:18.995Z,8.38
2022-12-08T00:46:46.036Z,8.70
2022-12-08T00:49:12.808Z,11.23
2022-12-08T00:51:39.585Z,8.02
2022-12-08T00:54:06.673Z,9.40
2022-12-08T00:56:33.831Z,7.15
2022-12-08T00:59:00.842Z,6.88
2022-12-08T01:01:27.745Z,9.38
2022-12-08T01:03:54.589Z,8.30
2022-12-08T01:06:21.317Z,7.32
2022-12-08T01:08:48.096Z,7.95
2022-12-08T01:11:17.445Z,9.68
2022-12-08T01:13:44.289Z,8.57
2022-12-08T01:16:18.648Z,7.80
2022-12-08T01:18:45.441Z,8.60
2022-12-08T01:21:12.180Z,9.20
2022-12-08T01:23:38.865Z,8.98
2022-12-08T01:26:06.818Z,8.02
2022-12-08T01:28:33.809Z,7.93
2022-12-08T01:31:00.934Z,9.10
2022-12-08T01:33:27.889Z,8.77
2022-12-08T01:35:55.470Z,8.18
2022-12-08T01:38:22.592Z,8.88
2022-12-08T01:40:49.441Z,8.07
2022-12-08T01:43:17.190Z,9.52
2022-12-08T01:45:44.080Z,8.77
2022-12-08T01:48:19.103Z,8.48
2022-12-08T01:50:46.876Z,9.50
2022-12-08T01:53:32.862Z,8.60
2022-12-08T01:56:02.739Z,9.35
2022-12-08T01:58:35.197Z,9.13
2022-12-08T02:01:02.423Z,7.93
2022-12-08T02:03:35.976Z,8.32
2022-12-08T02:06:03.293Z,7.90
2022-12-08T02:08:30.092Z,7.85
2022-12-08T02:10:56.926Z,9.38
2022-12-08T02:13:23.758Z,9.05
2022-12-08T02:15:56.829Z,8.35
2022-12-08T02:18:42.695Z,8.88
2022-12-08T02:21:16.073Z,7.93
2022-12-08T02:24:03.746Z,9.40
2022-12-08T02:26:42.602Z,9.57
2022-12-08T02:29:25.129Z,8.55
2022-12-08T02:32:29.340Z,8.50
2022-12-08T02:35:18.713Z,9.13
2022-12-08T02:38:19.547Z,7.93
2022-12-08T02:41:11.109Z,6.90
2022-12-08T02:44:08.482Z,9.35
2022-12-08T02:46:48.593Z,7.45
2022-12-08T02:49:16.758Z,8.35
2022-12-08T02:51:43.609Z,8.07
2022-12-08T02:54:10.330Z,8.75
2022-12-08T02:57:17.480Z,9.48
2022-12-08T03:00:17.143Z,8.65
2022-12-08T03:03:08.058Z,8.50
2022-12-08T03:05:56.206Z,8.80
2022-12-08T03:08:51.393Z,8.68
2022-12-08T03:11:30.480Z,9.52
2022-12-08T03:13:59.390Z,9.38
2022-12-08T03:16:28.306Z,8.82
2022-12-08T03:19:19.857Z,9.85
2022-12-08T03:22:02.813Z,8.85
2022-12-08T03:24:37.498Z,10.10
2022-12-08T03:27:14.907Z,10.05
2022-12-08T03:29:41.720Z,9.10
2022-12-08T03:32:23.318Z,10.40
2022-12-08T03:34:50.642Z,9.63
2022-12-08T03:37:17.441Z,9.93
2022-12-08T03:39:44.196Z,9.82
2022-12-08T03:42:10.982Z,9.68
2022-12-08T03:44:37.737Z,8.88
2022-12-08T03:47:04.612Z,9.75
2022-12-08T03:49:31.326Z,9.05
2022-12-08T03:51:58.027Z,12.07
2022-12-08T03:54:24.784Z,9.45
2022-12-08T03:56:51.488Z,9.55
2022-12-08T03:59:18.260Z,10.07
2022-12-08T04:01:45.079Z,10.10
2022-12-08T04:04:11.870Z,10.52
2022-12-08T04:06:38.620Z,9.65
2022-12-08T04:09:05.339Z,10.85
2022-12-08T04:11:32.050Z,9.85
2022-12-08T04:13:58.817Z,9.57
2022-12-08T04:16:26.628Z,10.05
2022-12-08T04:18:53.507Z,10.00
2022-12-08T04:21:20.268Z,10.43
2022-12-08T04:23:47.069Z,9.85
2022-12-08T04:26:13.986Z,10.07
2022-12-08T04:28:40.791Z,9.93
2022-12-08T04:31:07.618Z,9.00
2022-12-08T04:33:35.316Z,9.20
2022-12-08T04:36:03.110Z,9.63
2022-12-08T04:38:29.912Z,10.45
2022-12-08T04:40:56.642Z,10.88
2022-12-08T04:43:23.403Z,10.60
2022-12-08T04:45:50.348Z,9.52
2022-12-08T04:48:17.136Z,10.90
2022-12-08T04:50:44.836Z,9.32
2022-12-08T04:53:12.104Z,9.65
2022-12-08T04:55:43.800Z,9.85
2022-12-08T04:58:14.429Z,11.45
2022-12-08T05:00:41.841Z,9.18
2022-12-08T05:03:08.757Z,8.60
2022-12-08T05:05:35.536Z,8.65
2022-12-08T05:08:02.594Z,10.60
2022-12-08T05:10:29.419Z,10.30
2022-12-08T05:12:56.158Z,10.85
2022-12-08T05:15:22.898Z,10.13
2022-12-08T05:17:49.727Z,10.70
2022-12-08T05:20:16.547Z,11.20
2022-12-08T05:22:43.740Z,10.40
2022-12-08T05:25:10.444Z,10.48
2022-12-08T05:27:37.467Z,11.70
2022-12-08T05:30:05.112Z,11.20
2022-12-08T05:32:32.060Z,11.57
2022-12-08T05:34:58.772Z,10.73
2022-12-08T05:37:25.505Z,10.63
2022-12-08T05:39:52.245Z,10.30
2022-12-08T05:42:24.357Z,11.13
2022-12-08T05:44:51.595Z,11.57
2022-12-08T05:47:18.338Z,11.73
2022-12-08T05:49:45.141Z,11.68
2022-12-08T05:52:11.934Z,11.02
2022-12-08T05:54:38.763Z,11.07
2022-12-08T05:57:05.749Z,10.77
2022-12-08T05:59:32.651Z,11.13
2022-12-08T06:01:59.500Z,10.85
2022-12-08T06:04:26.417Z,11.15
2022-12-08T06:06:53.143Z,10.80
2022-12-08T06:09:19.911Z,10.77
2022-12-08T06:11:47.291Z,11.63
2022-12-08T06:14:14.082Z,10.55
2022-12-08T06:16:40.980Z,11.25
2022-12-08T06:19:07.770Z,11.07
2022-12-08T06:21:34.829Z,11.63
2022-12-08T06:24:01.602Z,11.32
2022-12-08T06:26:29.043Z,10.73
2022-12-08T06:28:55.906Z,11.05
2022-12-08T06:31:24.787Z,10.80
2022-12-08T06:33:51.978Z,10.70
2022-12-08T06:36:19.681Z,11.02
2022-12-08T06:38:46.622Z,11.68
2022-12-08T06:41:13.665Z,11.13
2022-12-08T06:43:41.201Z,11.55
2022-12-08T06:46:10.573Z,10.00
2022-12-08T06:48:37.392Z,10.85
2022-12-08T06:51:08.702Z,10.27
2022-12-08T06:53:35.454Z,10.25
2022-12-08T06:56:02.186Z,10.60
2022-12-08T06:58:29.015Z,11.77
2022-12-08T07:00:55.821Z,11.30
2022-12-08T07:03:22.682Z,11.20
2022-12-08T07:05:49.491Z,11.00
2022-12-08T07:08:16.385Z,12.32
2022-12-08T07:10:43.233Z,9.93
2022-12-08T07:13:09.967Z,11.18
2022-12-08T07:15:36.848Z,10.00
2022-12-08T07:18:03.759Z,11.27
2022-12-08T07:20:30.512Z,11.63
2022-12-08T07:22:57.481Z,13.13
2022-12-08T07:25:24.319Z,11.00
2022-12-08T07:27:52.706Z,13.60
2022-12-08T07:30:19.602Z,16.15
2022-12-08T07:32:46.381Z,15.27
2022-12-08T07:35:13.415Z,15.98
2022-12-08T07:37:40.262Z,12.13
2022-12-08T07:40:08.065Z,12.02
2022-12-08T07:42:35.086Z,10.93
2022-12-08T07:45:02.345Z,11.27
2022-12-08T07:47:29.132Z,10.40
2022-12-08T07:49:55.844Z,10.38
2022-12-08T07:52:23.407Z,13.63
2022-12-08T07:54:50.173Z,10.05
2022-12-08T07:57:17.024Z,11.30
2022-12-08T07:59:43.797Z,12.30
2022-12-08T08:02:25.411Z,11.10
2022-12-08T08:04:53.000Z,11.20
2022-12-08T08:07:19.878Z,10.75
2022-12-08T08:09:46.703Z,13.88
2022-12-08T08:15:00.888Z,10.90
2022-12-08T08:17:28.585Z,10.38
2022-12-08T08:19:55.592Z,10.25
2022-12-08T08:22:22.373Z,11.55
2022-12-08T08:24:49.131Z,11.80
2022-12-08T08:27:15.910Z,12.10
2022-12-08T08:29:42.699Z,12.00
2022-12-08T08:32:09.501Z,9.45
2022-12-08T08:34:36.389Z,11.52
2022-12-08T08:37:03.216Z,11.25
2022-12-08T08:39:31.817Z,11.70
2022-12-08T08:41:58.577Z,10.20
2022-12-08T08:44:25.647Z,9.57
2022-12-08T08:46:52.405Z,11.90
2022-12-08T08:49:19.180Z,10.48
2022-12-08T08:51:46.181Z,12.57
2022-12-08T08:54:12.941Z,10.98
2022-12-08T08:56:39.682Z,10.77
2022-12-08T08:59:06.625Z,11.13
2022-12-08T09:01:34.092Z,12.30
2022-12-08T09:04:01.464Z,10.45
2022-12-08T09:06:28.717Z,11.38
2022-12-08T09:08:55.797Z,10.65
2022-12-08T09:11:23.627Z,11.85
2022-12-08T09:13:51.190Z,10.75
2022-12-08T09:16:18.329Z,11.80
2022-12-08T09:18:45.171Z,12.05
2022-12-08T09:21:15.231Z,10.63
2022-12-08T09:23:42.417Z,10.25
2022-12-08T09:26:09.158Z,10.48
2022-12-08T09:28:35.935Z,11.32
2022-12-08T09:31:02.861Z,11.35
2022-12-08T09:33:29.621Z,11.57
2022-12-08T09:35:56.495Z,10.50
2022-12-08T09:38:23.369Z,10.85
2022-12-08T09:40:51.825Z,11.55
2022-12-08T09:43:51.667Z,10.82
2022-12-08T09:46:19.199Z,10.20
2022-12-08T09:48:51.910Z,11.85
2022-12-08T09:51:18.690Z,11.90
2022-12-08T09:53:50.967Z,11.07
2022-12-08T09:56:19.772Z,10.65
2022-12-08T09:59:00.462Z,10.80
2022-12-08T10:01:35.164Z,10.70
2022-12-08T10:04:02.220Z,11.13
2022-12-08T10:06:47.314Z,11.32
2022-12-08T10:09:32.668Z,12.00
2022-12-08T10:12:20.038Z,11.07
2022-12-08T10:15:09.606Z,11.93
2022-12-08T10:17:40.284Z,11.20
2022-12-08T10:20:21.683Z,10.38
2022-12-08T10:22:51.016Z,10.98
2022-12-08T10:25:33.393Z,10.27
2022-12-08T10:28:00.163Z,10.60
2022-12-08T10:30:27.021Z,12.40
2022-12-08T10:32:54.010Z,12.32
2022-12-08T10:35:21.823Z,12.88
2022-12-08T10:38:01.591Z,10.23
2022-12-08T10:40:29.675Z,11.23
2022-12-08T10:42:57.625Z,13.43
2022-12-08T10:45:29.643Z,11.88
2022-12-08T10:48:04.438Z,12.68
2022-12-08T10:50:33.955Z,12.02
2022-12-08T10:53:01.741Z,11.55
2022-12-08T10:55:28.883Z,11.30
2022-12-08T10:57:55.668Z,11.10
2022-12-08T11:00:25.182Z,12.95
2022-12-08T11:02:53.302Z,11.25
2022-12-08T11:05:20.627Z,13.27
2022-12-08T11:07:52.170Z,10.40
2022-12-08T11:10:19.687Z,10.20
2022-12-08T11:12:46.567Z,9.85
2022-12-08T11:15:16.675Z,11.68
2022-12-08T11:17:45.885Z,10.68
2022-12-08T11:20:19.701Z,10.90
2022-12-08T11:22:54.312Z,10.73
2022-12-08T11:25:22.817Z,10.35
2022-12-08T11:27:50.338Z,10.85
2022-12-08T11:30:21.220Z,10.60
2022-12-08T11:33:09.337Z,11.70
2022-12-08T11:35:40.294Z,11.68
2022-12-08T11:38:22.671Z,12.95
2022-12-08T11:41:03.649Z,11.07
2022-12-08T11:43:49.214Z,11.88
2022-12-08T11:46:25.318Z,10.35
2022-12-08T11:49:06.358Z,13.07
2022-12-08T11:51:56.009Z,11.60
2022-12-08T11:54:24.512Z,11.20
2022-12-08T11:56:56.183Z,10.82
2022-12-08T11:59:38.370Z,12.30
2022-12-08T12:02:05.573Z,12.18
2022-12-08T12:04:37.324Z,11.20
2022-12-08T12:07:15.291Z,16.35
2022-12-08T12:09:45.118Z,12.90
2022-12-08T12:12:39.442Z,13.43
2022-12-08T12:15:34.783Z,12.30
2022-12-08T12:20:43.092Z,32.38
2022-12-08T12:23:17.173Z,13.30
2022-12-08T12:28:17.984Z,13.37
2022-12-08T12:31:04.988Z,11.82
2022-12-08T12:33:32.113Z,12.98
2022-12-08T12:36:01.516Z,12.23
2022-12-08T12:38:54.927Z,12.02
2022-12-08T12:41:29.660Z,11.90
2022-12-08T12:44:08.677Z,12.93
2022-12-08T12:46:53.884Z,11.73
2022-12-08T12:49:39.254Z,10.75
2022-12-08T12:52:23.981Z,11.10
2022-12-08T12:54:50.749Z,9.98
2022-12-08T12:57:20.577Z,11.48
2022-12-08T12:59:54.688Z,12.25
2022-12-08T13:02:38.450Z,11.07
2022-12-08T13:05:27.720Z,9.75
2022-12-08T13:08:19.309Z,9.95
2022-12-08T13:11:04.255Z,11.48
2022-12-08T13:13:31.023Z,9.70
2022-12-08T13:16:15.405Z,9.88
2022-12-08T13:18:48.781Z,9.43
2022-12-08T13:21:18.705Z,11.10
2022-12-08T13:24:08.359Z,11.23
2022-12-08T13:26:36.973Z,11.32
2022-12-08T13:29:05.273Z,9.68
2022-12-08T13:31:58.146Z,9.68
2022-12-08T13:34:39.339Z,7.72
2022-12-08T13:37:12.337Z,8.13
2022-12-08T13:39:43.657Z,14.00
2022-12-08T13:42:13.497Z,8.48
2022-12-08T13:46:04.321Z,9.80
2022-12-08T13:48:30.107Z,10.77
2022-12-08T13:57:11.506Z,12.43
2022-12-08T13:59:43.423Z,10.10
2022-12-08T14:02:42.056Z,8.63
2022-12-08T14:05:26.603Z,9.43
2022-12-08T14:07:59.237Z,25.70
2022-12-08T14:10:30.563Z,11.05
2022-12-08T14:13:05.491Z,7.43
2022-12-08T14:15:38.683Z,7.13
2022-12-08T14:18:05.952Z,7.45
2022-12-08T14:20:51.729Z,6.72
2022-12-08T14:23:20.839Z,6.38
2022-12-08T14:25:47.802Z,4.75
2022-12-08T14:28:14.555Z,5.35
2022-12-08T14:30:41.339Z,7.57
2022-12-08T14:33:12.713Z,5.57
2022-12-08T14:35:39.843Z,14.10
2022-12-08T14:38:17.129Z,9.27
2022-12-08T14:40:45.284Z,7.10
2022-12-08T14:43:14.934Z,6.35
2022-12-08T14:45:44.879Z,5.57
2022-12-08T14:48:30.512Z,4.93
2022-12-08T14:51:03.204Z,7.75
2022-12-08T14:53:39.633Z,5.70
2022-12-08T14:56:37.064Z,8.20
2022-12-08T14:59:23.080Z,6.97
2022-12-08T15:01:51.029Z,8.18
2022-12-08T15:04:19.845Z,6.07
2022-12-08T15:07:03.215Z,5.05
2022-12-08T15:09:32.345Z,6.40
2022-12-08T15:12:06.607Z,5.30
2022-12-08T15:14:37.555Z,5.65
2022-12-08T15:17:04.744Z,6.05
2022-12-08T15:19:33.282Z,4.60
2022-12-08T15:22:12.322Z,5.82
2022-12-08T15:24:39.120Z,5.60
2022-12-08T15:27:05.963Z,7.57
2022-12-08T15:29:32.886Z,8.98
2022-12-08T15:32:01.094Z,6.35
2022-12-08T15:34:27.862Z,7.18
2022-12-08T15:36:54.828Z,8.30
2022-12-08T15:39:36.250Z,5.90
2022-12-08T15:42:04.239Z,6.38
2022-12-08T15:44:32.756Z,5.75
2022-12-08T15:47:00.099Z,6.10
2022-12-08T15:49:26.973Z,5.35
2022-12-08T15:52:04.960Z,6.20
2022-12-08T15:54:37.818Z,6.18
2022-12-08T15:57:20.253Z,6.25
2022-12-08T15:59:51.293Z,6.78
2022-12-08T16:02:22.597Z,6.18
2022-12-08T16:07:38.261Z,6.03
2022-12-08T16:10:07.092Z,6.50
2022-12-08T16:15:59.274Z,6.93
2022-12-08T16:18:28.986Z,6.47
2022-12-08T16:21:09.651Z,6.32
2022-12-08T16:23:44.679Z,6.05
2022-12-08T16:26:28.374Z,6.93
2022-12-08T16:29:03.063Z,6.38
2022-12-08T16:31:30.403Z,5.68
2022-12-08T16:33:57.193Z,5.55
2022-12-08T16:36:23.916Z,6.90
2022-12-08T16:38:50.694Z,6.05
2022-12-08T16:41:36.114Z,8.13
2022-12-08T16:44:03.657Z,6.55
2022-12-08T16:46:30.710Z,6.68
2022-12-08T16:48:58.890Z,6.95
2022-12-08T16:51:27.280Z,6.40
2022-12-08T16:53:57.969Z,8.48
2022-12-08T16:56:30.584Z,7.97
2022-12-08T16:58:59.238Z,7.22
2022-12-08T17:01:29.133Z,10.43
2022-12-08T17:04:22.948Z,10.07
2022-12-08T17:06:42.770Z,11.60
2022-12-08T17:09:09.570Z,10.48
2022-12-08T17:11:42.596Z,12.10
2022-12-08T17:14:10.275Z,10.07
2022-12-08T17:16:37.164Z,10.38
2022-12-08T17:19:04.582Z,11.80
2022-12-08T17:21:32.139Z,11.20
2022-12-08T17:23:59.240Z,11.55
2022-12-08T17:26:29.283Z,10.55
2022-12-08T17:29:00.877Z,12.35
2022-12-08T17:31:30.204Z,12.60
2022-12-08T17:34:04.587Z,13.55
2022-12-08T17:38:59.042Z,12.25
2022-12-08T17:41:25.959Z,12.50
2022-12-08T17:43:52.721Z,14.15
2022-12-08T17:46:19.798Z,12.20
2022-12-08T17:48:46.851Z,13.20
2022-12-08T17:51:13.643Z,14.13
2022-12-08T17:53:40.826Z,11.88
2022-12-08T17:56:14.321Z,13.77
2022-12-08T17:58:41.271Z,15.20
2022-12-08T18:01:09.274Z,19.00
2022-12-08T18:03:36.439Z,16.65
2022-12-08T18:06:10.660Z,17.67
2022-12-08T18:11:05.018Z,15.63
2022-12-08T18:13:31.852Z,19.05
2022-12-08T18:15:58.595Z,17.75
2022-12-08T18:18:25.370Z,19.35
2022-12-08T18:20:52.244Z,18.65
2022-12-08T18:23:19.026Z,21.25
2022-12-08T18:25:45.786Z,18.38
2022-12-08T18:28:12.522Z,21.00
2022-12-08T18:30:39.888Z,21.42
2022-12-08T18:33:07.132Z,22.70
2022-12-08T18:35:34.038Z,25.00
2022-12-08T18:38:00.795Z,23.40
2022-12-08T18:40:28.376Z,21.20
2022-12-08T18:42:55.216Z,20.90
2022-12-08T18:45:22.885Z,20.67
2022-12-08T18:47:50.638Z,21.05
2022-12-08T18:50:17.767Z,18.60
2022-12-08T18:52:45.292Z,17.23
2022-12-08T18:55:12.145Z,16.92
2022-12-08T18:57:39.445Z,14.40
2022-12-08T19:00:08.108Z,15.25
2022-12-08T19:02:36.164Z,14.43
2022-12-08T19:05:03.090Z,14.40
2022-12-08T19:07:29.978Z,14.75
2022-12-08T19:09:56.735Z,12.93
2022-12-08T19:12:23.490Z,12.60
2022-12-08T19:14:50.370Z,14.18
2022-12-08T19:17:17.122Z,13.65
2022-12-08T19:19:43.938Z,14.20
2022-12-08T19:22:10.804Z,13.43
2022-12-08T19:24:37.576Z,12.60
2022-12-08T19:27:05.761Z,11.52
2022-12-08T19:29:32.525Z,11.00
2022-12-08T19:32:00.320Z,11.45
2022-12-08T19:34:27.456Z,11.65
2022-12-08T19:36:54.297Z,11.77
2022-12-08T19:39:41.060Z,12.20
2022-12-08T19:42:36.603Z,11.82
2022-12-08T19:45:12.262Z,12.98
2022-12-08T19:47:39.723Z,12.32
2022-12-08T19:50:25.977Z,13.50
2022-12-08T19:52:53.214Z,11.75
2022-12-08T19:55:20.542Z,12.73
2022-12-08T19:57:47.294Z,13.65
2022-12-08T20:00:14.384Z,13.38
2022-12-08T20:02:41.963Z,15.43
2022-12-08T20:05:11.092Z,13.35
2022-12-08T20:07:38.133Z,12.35
2022-12-08T20:10:06.598Z,11.57
2022-12-08T20:12:33.630Z,13.00
2022-12-08T20:15:00.556Z,14.68
2022-12-08T20:17:27.383Z,12.38
2022-12-08T20:19:54.316Z,14.20
2022-12-08T20:22:21.087Z,13.82
2022-12-08T20:24:56.428Z,13.15
2022-12-08T20:27:26.672Z,13.38
2022-12-08T20:29:53.487Z,13.25
2022-12-08T20:32:20.242Z,13.95
2022-12-08T20:34:47.102Z,12.60
2022-12-08T20:37:14.006Z,13.63
2022-12-08T20:39:40.908Z,13.48
2022-12-08T20:42:10.350Z,13.43
2022-12-08T20:44:43.201Z,14.40
2022-12-08T20:47:11.117Z,15.38
2022-12-08T20:49:38.425Z,14.18
2022-12-08T20:52:05.597Z,12.20
2022-12-08T20:54:32.473Z,12.88
2022-12-08T20:56:59.337Z,14.30
2022-12-08T20:59:26.981Z,13.43
2022-12-08T21:01:54.100Z,13.30
2022-12-08T21:04:24.080Z,13.52
2022-12-08T21:06:51.276Z,13.32
2022-12-08T21:09:18.229Z,13.95
2022-12-08T21:11:45.424Z,14.52
2022-12-08T21:14:12.556Z,13.77
2022-12-08T21:16:39.360Z,12.25
2022-12-08T21:19:06.373Z,13.27
2022-12-08T21:21:33.318Z,13.25
2022-12-08T21:24:01.075Z,11.63
2022-12-08T21:26:28.401Z,11.25
2022-12-08T21:28:55.326Z,11.75
2022-12-08T21:31:22.536Z,13.75
2022-12-08T21:33:49.915Z,13.15
2022-12-08T21:36:18.373Z,12.55
2022-12-08T21:38:45.610Z,12.68
2022-12-08T21:41:37.632Z,12.27
2022-12-08T21:44:05.421Z,12.88
2022-12-08T21:46:33.115Z,12.55
2022-12-08T21:48:59.961Z,11.43
2022-12-08T21:51:28.119Z,12.18
2022-12-08T21:53:55.071Z,11.30
2022-12-08T21:56:22.042Z,12.60
2022-12-08T21:58:49.529Z,11.95
2022-12-08T22:01:16.538Z,11.93
2022-12-08T22:03:43.570Z,12.75
2022-12-08T22:06:13.564Z,12.90
2022-12-08T22:08:41.164Z,13.60
2022-12-08T22:11:08.436Z,11.32
2022-12-08T22:13:36.290Z,11.52
2022-12-08T22:16:07.544Z,14.02
2022-12-08T22:18:34.706Z,12.27
2022-12-08T22:21:02.554Z,12.18
2022-12-08T22:23:29.364Z,12.38
2022-12-08T22:25:57.984Z,13.23
2022-12-08T22:28:25.466Z,14.18
2022-12-08T22:30:52.401Z,11.95
2022-12-08T22:33:19.452Z,11.88
2022-12-08T22:35:56.206Z,10.45
2022-12-08T22:38:22.885Z,11.85
2022-12-08T22:40:49.713Z,11.93
2022-12-08T22:43:16.462Z,10.43
2022-12-08T22:45:43.436Z,11.35
2022-12-08T22:48:10.632Z,11.15
2022-12-08T22:50:37.461Z,9.88
2022-12-08T22:53:04.269Z,11.65
2022-12-08T22:55:34.127Z,11.07
2022-12-08T22:58:01.072Z,10.73
2022-12-08T23:00:28.114Z,9.77
2022-12-08T23:02:54.923Z,11.48
2022-12-08T23:05:21.804Z,11.73
2022-12-08T23:07:48.736Z,13.07
2022-12-08T23:10:15.629Z,12.18
2022-12-08T23:12:42.504Z,11.90
2022-12-08T23:15:09.579Z,10.30
2022-12-08T23:17:36.598Z,8.95
2022-12-08T23:20:04.212Z,10.68
2022-12-08T23:22:31.392Z,10.05
2022-12-08T23:25:00.384Z,10.63
2022-12-08T23:27:27.161Z,9.90
2022-12-08T23:29:54.200Z,9.02
2022-12-08T23:32:21.459Z,10.60
2022-12-08T23:34:48.582Z,11.48
2022-12-08T23:37:15.476Z,10.70
2022-12-08T23:39:45.111Z,10.10
2022-12-08T23:42:13.335Z,10.18
2022-12-08T23:44:40.208Z,11.50
2022-12-08T23:47:07.270Z,9.77
2022-12-08T23:49:34.137Z,9.77
2022-12-08T23:52:00.918Z,10.23
2022-12-08T23:54:27.649Z,9.88
2022-12-08T23:56:54.569Z,9.68
2022-12-08T23:59:22.129Z,9.75
